createdAt,value
2018-07-20T00:00:52.301Z,0.00
2018-07-20T00:01:52.287Z,0.00
2018-07-20T00:02:52.300Z,0.00
2018-07-20T00:03:52.294Z,0.00
2018-07-20T00:04:52.296Z,0.00
2018-07-20T00:05:52.301Z,0.00
2018-07-20T00:06:52.306Z,0.00
2018-07-20T00:07:52.317Z,0.00
2018-07-20T00:08:52.312Z,0.00
2018-07-20T00:09:52.324Z,0.00
2018-07-20T00:10:52.321Z,0.00
2018-07-20T00:11:52.347Z,0.00
2018-07-20T00:12:52.323Z,0.00
2018-07-20T00:13:52.335Z,0.00
2018-07-20T00:14:52.335Z,0.00
2018-07-20T00:15:52.339Z,0.00
2018-07-20T00:16:52.342Z,0.00
2018-07-20T00:17:52.346Z,0.00
2018-07-20T00:18:52.358Z,0.00
2018-07-20T00:19:52.350Z,0.00
2018-07-20T00:20:52.352Z,0.00
2018-07-20T00:21:52.381Z,0.00
2018-07-20T00:22:52.372Z,0.00
2018-07-20T00:23:52.367Z,0.00
2018-07-20T00:24:52.381Z,0.00
2018-07-20T00:25:52.371Z,0.00
2018-07-20T00:26:52.377Z,0.00
2018-07-20T00:27:52.387Z,0.00
2018-07-20T00:28:52.381Z,0.00
2018-07-20T00:29:52.384Z,0.00
2018-07-20T00:30:52.391Z,0.00
2018-07-20T00:31:52.392Z,0.00
2018-07-20T00:32:52.395Z,0.00
2018-07-20T00:33:52.401Z,0.00
2018-07-20T00:34:52.402Z,0.00
2018-07-20T00:35:52.433Z,0.00
2018-07-20T00:36:52.422Z,0.00
2018-07-20T00:37:52.414Z,0.00
2018-07-20T00:38:52.424Z,0.00
2018-07-20T00:39:52.434Z,0.00
2018-07-20T00:40:52.432Z,0.00
2018-07-20T00:41:52.439Z,0.00
2018-07-20T00:42:52.427Z,0.00
2018-07-20T00:43:52.432Z,0.00
2018-07-20T00:44:52.437Z,0.00
2018-07-20T00:45:52.439Z,0.00
2018-07-20T00:46:52.456Z,0.00
2018-07-20T00:47:52.444Z,0.00
2018-07-20T00:48:52.464Z,0.00
2018-07-20T00:49:52.457Z,0.00
2018-07-20T00:50:52.457Z,0.00
2018-07-20T00:51:52.459Z,0.00
2018-07-20T00:52:52.462Z,0.00
2018-07-20T00:53:52.474Z,0.00
2018-07-20T00:54:52.479Z,0.00
2018-07-20T00:55:52.479Z,0.00
2018-07-20T00:56:52.478Z,0.00
2018-07-20T00:57:52.481Z,0.00
2018-07-20T00:58:52.481Z,0.00
2018-07-20T00:59:52.507Z,0.00
2018-07-20T01:00:52.704Z,0.00
2018-07-20T01:01:52.504Z,0.00
2018-07-20T01:02:52.507Z,0.00
2018-07-20T01:03:52.511Z,0.00
2018-07-20T01:04:52.703Z,0.00
2018-07-20T01:05:52.523Z,0.00
2018-07-20T01:06:52.523Z,0.00
2018-07-20T01:07:52.519Z,0.00
2018-07-20T01:08:52.514Z,0.00
2018-07-20T01:09:52.548Z,0.00
2018-07-20T01:10:52.523Z,0.00
2018-07-20T01:11:52.537Z,0.00
2018-07-20T01:12:52.525Z,0.00
2018-07-20T01:13:52.529Z,0.00
2018-07-20T01:14:52.535Z,0.00
2018-07-20T01:15:52.538Z,0.00
2018-07-20T01:16:52.539Z,0.00
2018-07-20T01:17:52.560Z,0.00
2018-07-20T01:18:52.560Z,0.00
2018-07-20T01:19:52.561Z,0.00
2018-07-20T01:20:52.552Z,0.00
2018-07-20T01:21:52.554Z,0.00
2018-07-20T01:22:52.587Z,0.00
2018-07-20T01:23:52.558Z,0.00
2018-07-20T01:24:52.591Z,0.00
2018-07-20T01:25:52.565Z,0.00
2018-07-20T01:26:52.577Z,0.00
2018-07-20T01:27:52.602Z,0.00
2018-07-20T01:28:52.577Z,0.00
2018-07-20T01:29:52.578Z,0.00
2018-07-20T01:30:52.579Z,0.00
2018-07-20T01:31:52.582Z,0.00
2018-07-20T01:32:52.591Z,0.00
2018-07-20T01:33:52.602Z,0.00
2018-07-20T01:34:52.792Z,0.00
2018-07-20T01:35:52.605Z,0.00
2018-07-20T01:36:52.607Z,0.00
2018-07-20T01:37:52.600Z,0.00
2018-07-20T01:38:52.603Z,0.00
2018-07-20T01:39:52.629Z,0.00
2018-07-20T01:40:52.628Z,0.00
2018-07-20T01:41:52.613Z,0.00
2018-07-20T01:42:52.613Z,0.00
2018-07-20T01:43:52.618Z,0.00
2018-07-20T01:44:52.618Z,0.00
2018-07-20T01:45:52.623Z,0.00
2018-07-20T01:46:52.635Z,0.00
2018-07-20T01:47:52.640Z,0.00
2018-07-20T01:48:52.641Z,0.00
2018-07-20T01:49:52.633Z,0.00
2018-07-20T01:50:52.660Z,0.00
2018-07-20T01:51:52.645Z,0.00
2018-07-20T01:52:52.644Z,0.00
2018-07-20T01:53:52.668Z,0.00
2018-07-20T01:54:52.645Z,0.00
2018-07-20T01:55:52.660Z,0.00
2018-07-20T01:56:52.665Z,0.00
2018-07-20T01:57:52.658Z,0.00
2018-07-20T01:58:52.657Z,0.00
2018-07-20T01:59:52.658Z,0.00
2018-07-20T02:00:52.665Z,0.00
2018-07-20T02:01:52.665Z,0.00
2018-07-20T02:02:52.684Z,0.00
2018-07-20T02:03:52.689Z,0.00
2018-07-20T02:04:52.680Z,0.00
2018-07-20T02:05:52.678Z,0.00
2018-07-20T02:06:52.688Z,0.00
2018-07-20T02:07:52.682Z,0.00
2018-07-20T02:08:52.689Z,0.00
2018-07-20T02:09:52.705Z,0.00
2018-07-20T02:10:52.692Z,0.00
2018-07-20T02:11:52.694Z,0.00
2018-07-20T02:12:52.725Z,0.00
2018-07-20T02:13:52.722Z,0.00
2018-07-20T02:14:52.701Z,0.00
2018-07-20T02:15:52.724Z,0.00
2018-07-20T02:16:52.731Z,0.00
2018-07-20T02:17:52.709Z,0.00
2018-07-20T02:18:52.712Z,0.00
2018-07-20T02:19:52.716Z,0.00
2018-07-20T02:20:52.748Z,0.00
2018-07-20T02:21:52.722Z,0.00
2018-07-20T02:22:52.738Z,0.00
2018-07-20T02:23:52.729Z,0.00
2018-07-20T02:24:52.727Z,0.00
2018-07-20T02:25:52.750Z,0.00
2018-07-20T02:26:52.734Z,0.00
2018-07-20T02:27:52.735Z,0.00
2018-07-20T02:28:52.747Z,0.00
2018-07-20T02:29:52.755Z,0.00
2018-07-20T02:30:52.762Z,0.00
2018-07-20T02:31:52.761Z,0.00
2018-07-20T02:32:52.766Z,0.00
2018-07-20T02:33:52.767Z,0.00
2018-07-20T02:34:52.769Z,0.00
2018-07-20T02:35:52.760Z,0.00
2018-07-20T02:36:52.762Z,0.00
2018-07-20T02:37:52.779Z,0.00
2018-07-20T02:38:52.770Z,0.00
2018-07-20T02:39:52.770Z,0.00
2018-07-20T02:40:52.775Z,0.00
2018-07-20T02:41:52.780Z,0.00
2018-07-20T02:42:52.789Z,0.00
2018-07-20T02:43:52.783Z,0.00
2018-07-20T02:44:52.789Z,0.00
2018-07-20T02:45:52.787Z,0.00
2018-07-20T02:46:52.793Z,0.00
2018-07-20T02:47:52.803Z,0.00
2018-07-20T02:48:52.796Z,0.00
2018-07-20T02:49:52.813Z,0.00
2018-07-20T02:50:52.803Z,0.00
2018-07-20T02:51:52.821Z,0.00
2018-07-20T02:52:52.821Z,0.00
2018-07-20T02:53:52.811Z,0.00
2018-07-20T02:54:52.845Z,0.00
2018-07-20T02:55:52.814Z,0.00
2018-07-20T02:56:52.829Z,0.00
2018-07-20T02:57:52.823Z,0.00
2018-07-20T02:58:52.820Z,0.00
2018-07-20T02:59:52.830Z,0.00
2018-07-20T03:00:52.840Z,0.00
2018-07-20T03:01:52.829Z,0.00
2018-07-20T03:02:52.849Z,0.00
2018-07-20T03:03:52.838Z,0.00
2018-07-20T03:04:52.851Z,0.00
2018-07-20T03:05:52.840Z,0.00
2018-07-20T03:06:52.841Z,0.00
2018-07-20T03:07:52.851Z,0.00
2018-07-20T03:08:52.919Z,0.00
2018-07-20T03:09:52.861Z,0.00
2018-07-20T03:10:52.862Z,0.00
2018-07-20T03:11:52.854Z,0.00
2018-07-20T03:12:52.859Z,0.00
2018-07-20T03:13:52.858Z,0.00
2018-07-20T03:14:52.871Z,0.00
2018-07-20T03:15:52.872Z,0.00
2018-07-20T03:16:52.865Z,0.00
2018-07-20T03:17:52.875Z,0.00
2018-07-20T03:18:52.896Z,0.00
2018-07-20T03:19:52.878Z,0.00
2018-07-20T03:20:52.916Z,0.00
2018-07-20T03:21:52.901Z,0.00
2018-07-20T03:22:52.875Z,0.00
2018-07-20T03:23:52.879Z,0.00
2018-07-20T03:24:52.881Z,0.00
2018-07-20T03:25:52.892Z,0.00
2018-07-20T03:26:52.883Z,0.00
2018-07-20T03:27:52.885Z,0.00
2018-07-20T03:28:52.888Z,0.00
2018-07-20T03:29:52.896Z,0.00
2018-07-20T03:30:52.893Z,0.00
2018-07-20T03:31:52.895Z,0.00
2018-07-20T03:32:52.951Z,0.00
2018-07-20T03:33:52.908Z,0.00
2018-07-20T03:34:52.899Z,0.00
2018-07-20T03:35:52.912Z,0.00
2018-07-20T03:36:52.905Z,0.00
2018-07-20T03:37:52.907Z,0.00
2018-07-20T03:38:52.906Z,0.00
2018-07-20T03:39:52.913Z,0.00
2018-07-20T03:40:52.915Z,0.00
2018-07-20T03:41:52.911Z,0.00
2018-07-20T03:42:52.916Z,0.00
2018-07-20T03:43:52.932Z,0.00
2018-07-20T03:44:52.934Z,0.00
2018-07-20T03:45:52.923Z,0.00
2018-07-20T03:46:52.936Z,0.00
2018-07-20T03:47:52.923Z,0.00
2018-07-20T03:48:52.949Z,0.00
2018-07-20T03:49:52.927Z,0.00
2018-07-20T03:50:52.939Z,0.00
2018-07-20T03:51:52.943Z,0.00
2018-07-20T03:52:52.933Z,0.00
2018-07-20T03:53:52.946Z,0.00
2018-07-20T03:54:52.935Z,0.00
2018-07-20T03:55:52.937Z,0.00
2018-07-20T03:56:52.954Z,0.00
2018-07-20T03:57:52.945Z,0.00
2018-07-20T03:58:52.942Z,0.00
2018-07-20T03:59:52.946Z,0.00
2018-07-20T04:00:53.062Z,0.00
2018-07-20T04:01:52.959Z,0.00
2018-07-20T04:02:52.967Z,0.00
2018-07-20T04:03:52.967Z,0.00
2018-07-20T04:04:52.954Z,0.00
2018-07-20T04:05:52.969Z,0.00
2018-07-20T04:06:52.956Z,0.00
2018-07-20T04:07:52.973Z,0.00
2018-07-20T04:08:52.982Z,0.00
2018-07-20T04:09:52.963Z,0.00
2018-07-20T04:10:52.977Z,0.00
2018-07-20T04:11:52.971Z,0.00
2018-07-20T04:12:52.983Z,0.00
2018-07-20T04:13:52.979Z,0.00
2018-07-20T04:14:52.980Z,0.00
2018-07-20T04:15:52.985Z,0.00
2018-07-20T04:16:52.975Z,0.00
2018-07-20T04:17:52.985Z,0.00
2018-07-20T04:18:52.978Z,0.00
2018-07-20T04:19:53.006Z,0.00
2018-07-20T04:20:52.982Z,0.00
2018-07-20T04:21:52.983Z,0.00
2018-07-20T04:22:52.986Z,0.00
2018-07-20T04:23:52.995Z,0.00
2018-07-20T04:24:53.002Z,0.00
2018-07-20T04:25:52.989Z,0.00
2018-07-20T04:26:52.991Z,0.00
2018-07-20T04:27:52.991Z,0.00
2018-07-20T04:28:52.995Z,0.00
2018-07-20T04:29:53.009Z,0.00
2018-07-20T04:30:53.008Z,0.00
2018-07-20T04:31:53.003Z,0.00
2018-07-20T04:32:53.002Z,0.00
2018-07-20T04:33:53.003Z,0.00
2018-07-20T04:34:53.004Z,0.00
2018-07-20T04:35:53.016Z,0.00
2018-07-20T04:36:53.008Z,0.00
2018-07-20T04:37:53.008Z,0.00
2018-07-20T04:38:53.010Z,0.00
2018-07-20T04:39:53.014Z,0.00
2018-07-20T04:40:53.019Z,0.00
2018-07-20T04:41:53.018Z,0.00
2018-07-20T04:42:53.019Z,0.00
2018-07-20T04:43:53.038Z,0.00
2018-07-20T04:44:53.033Z,0.00
2018-07-20T04:45:53.025Z,0.00
2018-07-20T04:46:53.034Z,0.00
2018-07-20T04:47:53.026Z,0.00
2018-07-20T04:48:53.027Z,0.00
2018-07-20T04:49:53.042Z,0.00
2018-07-20T04:50:53.029Z,0.00
2018-07-20T04:51:53.033Z,0.00
2018-07-20T04:52:53.035Z,0.00
2018-07-20T04:53:53.036Z,0.00
2018-07-20T04:54:53.042Z,0.00
2018-07-20T04:55:53.040Z,0.00
2018-07-20T04:56:53.042Z,0.00
2018-07-20T04:57:53.045Z,0.00
2018-07-20T04:58:53.102Z,0.00
2018-07-20T04:59:53.051Z,0.00
2018-07-20T05:00:53.072Z,0.00
2018-07-20T05:01:53.052Z,0.00
2018-07-20T05:02:53.054Z,0.00
2018-07-20T05:03:53.069Z,0.00
2018-07-20T05:04:53.061Z,0.00
2018-07-20T05:05:53.167Z,0.00
2018-07-20T05:06:53.063Z,0.00
2018-07-20T05:07:53.080Z,0.00
2018-07-20T05:08:53.270Z,0.00
2018-07-20T05:09:53.102Z,0.00
2018-07-20T05:10:53.071Z,0.00
2018-07-20T05:11:53.275Z,5.63
2018-07-20T05:12:53.074Z,5.63
2018-07-20T05:13:53.280Z,5.63
2018-07-20T05:14:53.080Z,5.63
2018-07-20T05:15:53.082Z,5.63
2018-07-20T05:16:53.099Z,5.63
2018-07-20T05:17:53.090Z,5.63
2018-07-20T05:18:53.100Z,5.63
2018-07-20T05:19:53.297Z,5.63
2018-07-20T05:20:53.096Z,5.63
2018-07-20T05:21:53.113Z,5.63
2018-07-20T05:22:53.096Z,5.63
2018-07-20T05:23:53.105Z,5.63
2018-07-20T05:24:53.113Z,5.63
2018-07-20T05:25:53.118Z,5.63
2018-07-20T05:26:53.123Z,5.63
2018-07-20T05:27:53.109Z,5.63
2018-07-20T05:28:53.122Z,5.63
2018-07-20T05:29:53.115Z,5.63
2018-07-20T05:30:53.165Z,5.63
2018-07-20T05:31:53.146Z,5.63
2018-07-20T05:32:53.134Z,5.63
2018-07-20T05:33:53.336Z,5.63
2018-07-20T05:34:53.125Z,5.63
2018-07-20T05:35:53.130Z,11.25
2018-07-20T05:36:53.133Z,11.25
2018-07-20T05:37:53.152Z,11.25
2018-07-20T05:38:53.149Z,11.25
2018-07-20T05:39:53.139Z,11.25
2018-07-20T05:40:53.141Z,11.25
2018-07-20T05:41:53.142Z,11.25
2018-07-20T05:42:53.160Z,11.25
2018-07-20T05:43:53.184Z,11.25
2018-07-20T05:44:53.148Z,11.25
2018-07-20T05:45:53.172Z,11.25
2018-07-20T05:46:53.358Z,11.25
2018-07-20T05:47:53.168Z,11.25
2018-07-20T05:48:53.163Z,11.25
2018-07-20T05:49:53.176Z,11.25
2018-07-20T05:50:53.384Z,11.25
2018-07-20T05:51:53.172Z,11.25
2018-07-20T05:52:53.172Z,11.25
2018-07-20T05:53:53.205Z,11.25
2018-07-20T05:54:53.177Z,11.25
2018-07-20T05:55:53.180Z,11.25
2018-07-20T05:56:53.181Z,16.88
2018-07-20T05:57:53.200Z,16.88
2018-07-20T05:58:53.201Z,16.88
2018-07-20T05:59:53.194Z,16.88
2018-07-20T06:00:53.402Z,16.88
2018-07-20T06:01:53.208Z,16.88
2018-07-20T06:02:53.203Z,16.88
2018-07-20T06:03:53.205Z,16.88
2018-07-20T06:04:53.212Z,16.88
2018-07-20T06:05:53.211Z,16.88
2018-07-20T06:06:53.262Z,16.88
2018-07-20T06:07:53.238Z,16.88
2018-07-20T06:08:53.227Z,16.88
2018-07-20T06:09:53.223Z,16.88
2018-07-20T06:10:53.226Z,16.88
2018-07-20T06:11:53.230Z,16.88
2018-07-20T06:12:53.237Z,16.88
2018-07-20T06:13:53.235Z,16.88
2018-07-20T06:14:53.239Z,16.88
2018-07-20T06:15:53.244Z,16.88
2018-07-20T06:16:53.248Z,16.88
2018-07-20T06:17:53.262Z,16.88
2018-07-20T06:18:53.282Z,16.88
2018-07-20T06:19:53.292Z,16.88
2018-07-20T06:20:53.276Z,16.88
2018-07-20T06:21:53.274Z,16.88
2018-07-20T06:22:53.290Z,16.88
2018-07-20T06:23:53.339Z,16.88
2018-07-20T06:24:53.289Z,16.88
2018-07-20T06:25:53.282Z,16.88
2018-07-20T06:26:53.282Z,16.88
2018-07-20T06:27:53.286Z,16.88
2018-07-20T06:28:53.302Z,16.88
2018-07-20T06:29:53.296Z,16.88
2018-07-20T06:30:53.300Z,16.88
2018-07-20T06:31:53.303Z,16.88
2018-07-20T06:32:53.306Z,106.88
2018-07-20T06:33:53.310Z,298.13
2018-07-20T06:34:53.526Z,354.38
2018-07-20T06:35:53.326Z,348.75
2018-07-20T06:36:53.351Z,264.38
2018-07-20T06:37:53.350Z,151.88
2018-07-20T06:38:53.331Z,106.88
2018-07-20T06:39:53.336Z,45.00
2018-07-20T06:40:53.354Z,151.88
2018-07-20T06:41:53.341Z,208.13
2018-07-20T06:42:53.351Z,67.50
2018-07-20T06:43:53.552Z,22.50
2018-07-20T06:44:53.367Z,22.50
2018-07-20T06:45:53.358Z,84.38
2018-07-20T06:46:53.374Z,78.75
2018-07-20T06:47:53.375Z,33.75
2018-07-20T06:48:53.377Z,28.13
2018-07-20T06:49:53.403Z,22.50
2018-07-20T06:50:53.380Z,16.88
2018-07-20T06:51:53.396Z,16.88
2018-07-20T06:52:53.400Z,16.88
2018-07-20T06:53:53.392Z,16.88
2018-07-20T06:54:53.398Z,22.50
2018-07-20T06:55:53.464Z,16.88
2018-07-20T06:56:53.415Z,16.88
2018-07-20T06:57:53.411Z,16.88
2018-07-20T06:58:53.426Z,16.88
2018-07-20T06:59:53.433Z,16.88
2018-07-20T07:00:53.423Z,16.88
2018-07-20T07:01:53.441Z,16.88
2018-07-20T07:02:53.449Z,16.88
2018-07-20T07:03:53.436Z,16.88
2018-07-20T07:04:53.468Z,16.88
2018-07-20T07:05:53.448Z,16.88
2018-07-20T07:06:53.460Z,22.50
2018-07-20T07:07:53.474Z,16.88
2018-07-20T07:08:53.463Z,16.88
2018-07-20T07:09:53.462Z,56.25
2018-07-20T07:10:53.480Z,281.25
2018-07-20T07:11:53.477Z,230.63
2018-07-20T07:12:53.489Z,50.63
2018-07-20T07:13:53.498Z,28.13
2018-07-20T07:14:53.493Z,22.50
2018-07-20T07:15:53.490Z,22.50
2018-07-20T07:16:53.495Z,39.38
2018-07-20T07:17:53.502Z,45.00
2018-07-20T07:18:53.708Z,90.00
2018-07-20T07:19:53.519Z,50.63
2018-07-20T07:20:53.530Z,22.50
2018-07-20T07:21:53.519Z,22.50
2018-07-20T07:22:53.523Z,22.50
2018-07-20T07:23:53.528Z,22.50
2018-07-20T07:24:53.533Z,22.50
2018-07-20T07:25:53.539Z,22.50
2018-07-20T07:26:53.542Z,22.50
2018-07-20T07:27:53.555Z,22.50
2018-07-20T07:28:53.562Z,22.50
2018-07-20T07:29:53.570Z,22.50
2018-07-20T07:30:53.571Z,22.50
2018-07-20T07:31:53.565Z,45.00
2018-07-20T07:32:53.568Z,112.50
2018-07-20T07:33:53.778Z,33.75
2018-07-20T07:34:53.580Z,61.88
2018-07-20T07:35:53.707Z,118.13
2018-07-20T07:36:53.600Z,84.38
2018-07-20T07:37:53.596Z,33.75
2018-07-20T07:38:53.600Z,33.75
2018-07-20T07:39:53.614Z,28.13
2018-07-20T07:40:53.620Z,22.50
2018-07-20T07:41:53.625Z,22.50
2018-07-20T07:42:53.618Z,22.50
2018-07-20T07:43:53.626Z,22.50
2018-07-20T07:44:53.628Z,22.50
2018-07-20T07:45:53.641Z,22.50
2018-07-20T07:46:53.843Z,22.50
2018-07-20T07:47:53.655Z,28.13
2018-07-20T07:48:53.648Z,28.13
2018-07-20T07:49:53.654Z,22.50
2018-07-20T07:50:53.670Z,22.50
2018-07-20T07:51:53.665Z,28.13
2018-07-20T07:52:53.671Z,28.13
2018-07-20T07:53:53.683Z,73.13
2018-07-20T07:54:53.685Z,196.88
2018-07-20T07:55:53.685Z,101.25
2018-07-20T07:56:53.691Z,39.38
2018-07-20T07:57:53.697Z,39.38
2018-07-20T07:58:53.709Z,101.25
2018-07-20T07:59:53.705Z,174.38
2018-07-20T08:00:53.720Z,129.38
2018-07-20T08:01:53.744Z,511.88
2018-07-20T08:02:53.721Z,928.13
2018-07-20T08:03:53.725Z,945.00
2018-07-20T08:04:53.736Z,871.88
2018-07-20T08:05:53.736Z,573.75
2018-07-20T08:06:53.956Z,174.38
2018-07-20T08:07:53.747Z,61.88
2018-07-20T08:08:53.773Z,90.00
2018-07-20T08:09:53.825Z,112.50
2018-07-20T08:10:53.763Z,106.88
2018-07-20T08:11:53.766Z,45.00
2018-07-20T08:12:53.789Z,39.38
2018-07-20T08:13:53.793Z,56.25
2018-07-20T08:14:53.799Z,61.88
2018-07-20T08:15:53.813Z,39.38
2018-07-20T08:16:53.796Z,33.75
2018-07-20T08:17:53.825Z,33.75
2018-07-20T08:18:53.815Z,39.38
2018-07-20T08:19:53.812Z,39.38
2018-07-20T08:20:53.829Z,33.75
2018-07-20T08:21:53.821Z,33.75
2018-07-20T08:22:53.917Z,33.75
2018-07-20T08:23:53.850Z,33.75
2018-07-20T08:24:54.043Z,33.75
2018-07-20T08:25:53.856Z,33.75
2018-07-20T08:26:53.861Z,33.75
2018-07-20T08:27:53.867Z,33.75
2018-07-20T08:28:53.862Z,33.75
2018-07-20T08:29:53.878Z,28.13
2018-07-20T08:30:53.873Z,28.13
2018-07-20T08:31:53.892Z,28.13
2018-07-20T08:32:53.885Z,28.13
2018-07-20T08:33:53.891Z,28.13
2018-07-20T08:34:53.910Z,28.13
2018-07-20T08:35:53.902Z,28.13
2018-07-20T08:36:53.908Z,28.13
2018-07-20T08:37:53.913Z,28.13
2018-07-20T08:38:53.919Z,28.13
2018-07-20T08:39:53.924Z,28.13
2018-07-20T08:40:53.932Z,28.13
2018-07-20T08:41:53.947Z,28.13
2018-07-20T08:42:53.959Z,28.13
2018-07-20T08:43:53.962Z,28.13
2018-07-20T08:44:53.980Z,28.13
2018-07-20T08:45:53.957Z,28.13
2018-07-20T08:46:54.165Z,28.13
2018-07-20T08:47:53.972Z,28.13
2018-07-20T08:48:53.999Z,28.13
2018-07-20T08:49:53.982Z,28.13
2018-07-20T08:50:54.187Z,28.13
2018-07-20T08:51:54.217Z,28.13
2018-07-20T08:52:53.997Z,28.13
2018-07-20T08:53:54.049Z,28.13
2018-07-20T08:54:54.008Z,28.13
2018-07-20T08:55:54.220Z,28.13
2018-07-20T08:56:54.018Z,22.50
2018-07-20T08:57:54.034Z,22.50
2018-07-20T08:58:54.105Z,22.50
2018-07-20T08:59:54.088Z,22.50
2018-07-20T09:00:54.086Z,22.50
2018-07-20T09:01:54.046Z,22.50
2018-07-20T09:02:54.051Z,22.50
2018-07-20T09:03:54.261Z,22.50
2018-07-20T09:04:54.074Z,22.50
2018-07-20T09:05:54.284Z,22.50
2018-07-20T09:06:54.085Z,22.50
2018-07-20T09:07:54.285Z,22.50
2018-07-20T09:08:54.086Z,22.50
2018-07-20T09:09:54.292Z,22.50
2018-07-20T09:10:54.097Z,22.50
2018-07-20T09:11:54.112Z,22.50
2018-07-20T09:12:54.111Z,22.50
2018-07-20T09:13:54.319Z,22.50
2018-07-20T09:14:54.333Z,22.50
2018-07-20T09:15:54.126Z,22.50
2018-07-20T09:16:54.140Z,22.50
2018-07-20T09:17:54.135Z,22.50
2018-07-20T09:18:54.141Z,22.50
2018-07-20T09:19:54.147Z,22.50
2018-07-20T09:20:54.409Z,22.50
2018-07-20T09:21:54.373Z,22.50
2018-07-20T09:22:54.377Z,22.50
2018-07-20T09:23:54.379Z,22.50
2018-07-20T09:24:54.176Z,22.50
2018-07-20T09:25:54.192Z,22.50
2018-07-20T09:26:54.196Z,22.50
2018-07-20T09:27:54.197Z,22.50
2018-07-20T09:28:54.199Z,22.50
2018-07-20T09:29:54.211Z,22.50
2018-07-20T09:30:54.209Z,22.50
2018-07-20T09:31:54.224Z,22.50
2018-07-20T09:32:54.217Z,22.50
2018-07-20T09:33:54.223Z,22.50
2018-07-20T09:34:54.243Z,22.50
2018-07-20T09:35:54.441Z,22.50
2018-07-20T09:36:54.238Z,22.50
2018-07-20T09:37:54.451Z,22.50
2018-07-20T09:38:54.252Z,22.50
2018-07-20T09:39:54.265Z,22.50
2018-07-20T09:40:54.262Z,22.50
2018-07-20T09:41:54.470Z,22.50
2018-07-20T09:42:54.278Z,16.88
2018-07-20T09:43:54.279Z,16.88
2018-07-20T09:44:54.486Z,16.88
2018-07-20T09:45:54.286Z,16.88
2018-07-20T09:46:54.294Z,16.88
2018-07-20T09:47:54.313Z,22.50
2018-07-20T09:48:54.330Z,22.50
2018-07-20T09:49:54.511Z,22.50
2018-07-20T09:50:54.314Z,22.50
2018-07-20T09:51:54.321Z,22.50
2018-07-20T09:52:54.344Z,22.50
2018-07-20T09:53:54.348Z,22.50
2018-07-20T09:54:54.351Z,22.50
2018-07-20T09:55:54.554Z,22.50
2018-07-20T09:56:54.347Z,22.50
2018-07-20T09:57:54.383Z,22.50
2018-07-20T09:58:54.359Z,22.50
2018-07-20T09:59:54.470Z,16.88
2018-07-20T10:00:54.379Z,22.50
2018-07-20T10:01:54.390Z,22.50
2018-07-20T10:02:54.392Z,22.50
2018-07-20T10:03:54.414Z,22.50
2018-07-20T10:04:54.421Z,22.50
2018-07-20T10:05:54.614Z,22.50
2018-07-20T10:06:54.403Z,22.50
2018-07-20T10:07:54.409Z,22.50
2018-07-20T10:08:54.426Z,22.50
2018-07-20T10:09:54.439Z,22.50
2018-07-20T10:10:54.434Z,22.50
2018-07-20T10:11:54.656Z,22.50
2018-07-20T10:12:54.468Z,22.50
2018-07-20T10:13:54.442Z,22.50
2018-07-20T10:14:54.446Z,22.50
2018-07-20T10:15:54.455Z,22.50
2018-07-20T10:16:54.458Z,22.50
2018-07-20T10:17:54.478Z,22.50
2018-07-20T10:18:54.496Z,22.50
2018-07-20T10:19:54.475Z,22.50
2018-07-20T10:20:54.484Z,16.88
2018-07-20T10:21:54.496Z,22.50
2018-07-20T10:22:54.490Z,16.88
2018-07-20T10:23:54.506Z,16.88
2018-07-20T10:24:54.505Z,16.88
2018-07-20T10:25:54.522Z,16.88
2018-07-20T10:26:54.514Z,16.88
2018-07-20T10:27:54.543Z,16.88
2018-07-20T10:28:54.730Z,16.88
2018-07-20T10:29:54.549Z,16.88
2018-07-20T10:30:54.538Z,16.88
2018-07-20T10:31:54.756Z,16.88
2018-07-20T10:32:54.561Z,16.88
2018-07-20T10:33:54.570Z,16.88
2018-07-20T10:34:54.580Z,16.88
2018-07-20T10:35:54.588Z,16.88
2018-07-20T10:36:54.572Z,16.88
2018-07-20T10:37:54.577Z,16.88
2018-07-20T10:38:54.584Z,16.88
2018-07-20T10:39:54.615Z,16.88
2018-07-20T10:40:54.798Z,16.88
2018-07-20T10:41:54.603Z,16.88
2018-07-20T10:42:54.608Z,16.88
2018-07-20T10:43:54.642Z,16.88
2018-07-20T10:44:54.617Z,16.88
2018-07-20T10:45:54.625Z,16.88
2018-07-20T10:46:54.651Z,16.88
2018-07-20T10:47:54.637Z,16.88
2018-07-20T10:48:54.648Z,16.88
2018-07-20T10:49:54.664Z,16.88
2018-07-20T10:50:54.668Z,16.88
2018-07-20T10:51:54.863Z,16.88
2018-07-20T10:52:54.679Z,16.88
2018-07-20T10:53:54.684Z,16.88
2018-07-20T10:54:54.676Z,16.88
2018-07-20T10:55:54.684Z,16.88
2018-07-20T10:56:54.693Z,16.88
2018-07-20T10:57:54.699Z,16.88
2018-07-20T10:58:54.715Z,16.88
2018-07-20T10:59:54.710Z,16.88
2018-07-20T11:00:54.716Z,16.88
2018-07-20T11:01:54.734Z,16.88
2018-07-20T11:02:54.728Z,16.88
2018-07-20T11:03:54.938Z,16.88
2018-07-20T11:04:54.949Z,16.88
2018-07-20T11:05:54.758Z,16.88
2018-07-20T11:06:54.764Z,16.88
2018-07-20T11:07:54.769Z,16.88
2018-07-20T11:08:54.778Z,16.88
2018-07-20T11:09:54.768Z,16.88
2018-07-20T11:10:54.775Z,16.88
2018-07-20T11:11:54.804Z,16.88
2018-07-20T11:12:54.789Z,16.88
2018-07-20T11:13:54.793Z,16.88
2018-07-20T11:14:54.808Z,16.88
2018-07-20T11:15:55.006Z,16.88
2018-07-20T11:16:54.811Z,16.88
2018-07-20T11:17:54.816Z,16.88
2018-07-20T11:18:54.837Z,16.88
2018-07-20T11:19:54.850Z,16.88
2018-07-20T11:20:54.836Z,16.88
2018-07-20T11:21:54.840Z,16.88
2018-07-20T11:22:54.854Z,16.88
2018-07-20T11:23:54.852Z,16.88
2018-07-20T11:24:54.860Z,16.88
2018-07-20T11:25:54.875Z,16.88
2018-07-20T11:26:54.885Z,16.88
2018-07-20T11:27:54.894Z,16.88
2018-07-20T11:28:54.889Z,16.88
2018-07-20T11:29:54.937Z,16.88
2018-07-20T11:30:54.897Z,16.88
2018-07-20T11:31:54.904Z,16.88
2018-07-20T11:32:54.922Z,16.88
2018-07-20T11:33:54.915Z,16.88
2018-07-20T11:34:54.936Z,16.88
2018-07-20T11:35:54.927Z,16.88
2018-07-20T11:36:54.944Z,16.88
2018-07-20T11:37:54.941Z,16.88
2018-07-20T11:38:54.956Z,16.88
2018-07-20T11:39:54.966Z,16.88
2018-07-20T11:40:54.977Z,16.88
2018-07-20T11:41:55.059Z,16.88
2018-07-20T11:42:54.985Z,16.88
2018-07-20T11:43:54.993Z,16.88
2018-07-20T11:44:55.004Z,11.25
2018-07-20T11:45:54.992Z,11.25
2018-07-20T11:46:55.205Z,11.25
2018-07-20T11:47:55.003Z,11.25
2018-07-20T11:48:55.012Z,11.25
2018-07-20T11:49:55.052Z,11.25
2018-07-20T11:50:55.237Z,11.25
2018-07-20T11:51:55.028Z,11.25
2018-07-20T11:52:55.035Z,11.25
2018-07-20T11:53:55.243Z,16.88
2018-07-20T11:54:55.067Z,16.88
2018-07-20T11:55:55.082Z,11.25
2018-07-20T11:56:55.072Z,16.88
2018-07-20T11:57:55.270Z,16.88
2018-07-20T11:58:55.071Z,16.88
2018-07-20T11:59:55.084Z,16.88
2018-07-20T12:00:55.100Z,16.88
2018-07-20T12:01:55.145Z,16.88
2018-07-20T12:02:55.099Z,16.88
2018-07-20T12:03:55.117Z,16.88
2018-07-20T12:04:55.121Z,16.88
2018-07-20T12:05:55.115Z,16.88
2018-07-20T12:06:55.376Z,16.88
2018-07-20T12:07:55.154Z,16.88
2018-07-20T12:08:55.143Z,16.88
2018-07-20T12:09:55.153Z,16.88
2018-07-20T12:10:55.166Z,16.88
2018-07-20T12:11:55.358Z,16.88
2018-07-20T12:12:55.363Z,16.88
2018-07-20T12:13:55.198Z,16.88
2018-07-20T12:14:55.185Z,16.88
2018-07-20T12:15:55.191Z,16.88
2018-07-20T12:16:55.198Z,16.88
2018-07-20T12:17:55.190Z,16.88
2018-07-20T12:18:55.248Z,16.88
2018-07-20T12:19:55.420Z,16.88
2018-07-20T12:20:55.213Z,16.88
2018-07-20T12:21:55.239Z,16.88
2018-07-20T12:22:55.239Z,16.88
2018-07-20T12:23:55.231Z,16.88
2018-07-20T12:24:55.249Z,16.88
2018-07-20T12:25:55.258Z,16.88
2018-07-20T12:26:55.283Z,16.88
2018-07-20T12:27:55.259Z,16.88
2018-07-20T12:28:55.265Z,16.88
2018-07-20T12:29:55.281Z,16.88
2018-07-20T12:30:55.279Z,16.88
2018-07-20T12:31:55.296Z,16.88
2018-07-20T12:32:55.315Z,16.88
2018-07-20T12:33:55.309Z,16.88
2018-07-20T12:34:55.334Z,16.88
2018-07-20T12:35:55.309Z,16.88
2018-07-20T12:36:55.326Z,16.88
2018-07-20T12:37:55.321Z,16.88
2018-07-20T12:38:55.328Z,16.88
2018-07-20T12:39:55.345Z,16.88
2018-07-20T12:40:55.350Z,16.88
2018-07-20T12:41:55.549Z,16.88
2018-07-20T12:42:55.355Z,16.88
2018-07-20T12:43:55.361Z,16.88
2018-07-20T12:44:55.370Z,16.88
2018-07-20T12:45:55.385Z,16.88
2018-07-20T12:46:55.601Z,16.88
2018-07-20T12:47:55.606Z,16.88
2018-07-20T12:48:55.393Z,16.88
2018-07-20T12:49:55.416Z,16.88
2018-07-20T12:50:55.610Z,16.88
2018-07-20T12:51:55.413Z,16.88
2018-07-20T12:52:55.625Z,16.88
2018-07-20T12:53:55.428Z,16.88
2018-07-20T12:54:55.646Z,16.88
2018-07-20T12:55:55.441Z,16.88
2018-07-20T12:56:55.448Z,16.88
2018-07-20T12:57:55.462Z,16.88
2018-07-20T12:58:55.487Z,16.88
2018-07-20T12:59:55.695Z,16.88
2018-07-20T13:00:55.497Z,16.88
2018-07-20T13:01:55.483Z,16.88
2018-07-20T13:02:55.692Z,16.88